createdAt,value
2023-03-16T00:02:21.598Z,100238.31
2023-03-16T00:04:49.025Z,100242.56
2023-03-16T00:07:18.052Z,100226.72
2023-03-16T00:09:45.696Z,100234.31
2023-03-16T00:12:18.450Z,100229.22
2023-03-16T00:14:49.705Z,100216.91
2023-03-16T00:17:19.727Z,100229.06
2023-03-16T00:19:55.439Z,100222.66
2023-03-16T00:22:25.847Z,100221.31
2023-03-16T00:24:54.067Z,100209.25
2023-03-16T00:27:23.175Z,100209.13
2023-03-16T00:29:56.260Z,100224.72
2023-03-16T00:32:30.433Z,100216.34
2023-03-16T00:34:58.753Z,100210.53
2023-03-16T00:37:27.429Z,100216.72
2023-03-16T00:39:56.475Z,100214.94
2023-03-16T00:42:30.078Z,100218.41
2023-03-16T00:45:01.845Z,100218.41
2023-03-16T00:47:31.849Z,100214.38
2023-03-16T00:50:01.198Z,100211.25
2023-03-16T00:52:29.141Z,100215.88
2023-03-16T00:54:58.521Z,100216.06
2023-03-16T00:57:30.233Z,100212.19
2023-03-16T00:59:59.371Z,100227.72
2023-03-16T01:02:28.591Z,100226.25
2023-03-16T01:04:56.204Z,100232.47
2023-03-16T01:07:23.839Z,100219.53
2023-03-16T01:09:51.908Z,100222.97
2023-03-16T01:12:20.490Z,100226.44
2023-03-16T01:14:48.233Z,100219.50
2023-03-16T01:17:17.463Z,100220.34
2023-03-16T01:19:46.355Z,100223.81
2023-03-16T01:22:15.716Z,100226.72
2023-03-16T01:24:47.174Z,100230.91
2023-03-16T01:27:15.130Z,100230.97
2023-03-16T01:29:43.850Z,100227.66
2023-03-16T01:32:13.144Z,100233.66
2023-03-16T01:34:42.265Z,100225.94
2023-03-16T01:37:12.182Z,100231.25
2023-03-16T01:39:57.548Z,100239.06
2023-03-16T01:42:25.192Z,100238.94
2023-03-16T01:45:01.779Z,100235.88
2023-03-16T01:47:39.201Z,100232.47
2023-03-16T01:50:13.028Z,100236.78
2023-03-16T01:52:42.470Z,100236.94
2023-03-16T01:55:13.934Z,100235.19
2023-03-16T01:57:46.528Z,100232.91
2023-03-16T02:00:21.123Z,100240.91
2023-03-16T02:03:10.158Z,100244.53
2023-03-16T02:05:59.656Z,100252.13
2023-03-16T02:08:29.287Z,100249.44
2023-03-16T02:10:57.468Z,100257.38
2023-03-16T02:13:36.851Z,100253.25
2023-03-16T02:16:07.257Z,100255.13
2023-03-16T02:18:36.311Z,100256.66
2023-03-16T02:21:16.555Z,100258.25
2023-03-16T02:23:44.766Z,100251.28
2023-03-16T02:26:23.011Z,100252.25
2023-03-16T02:29:25.869Z,100256.81
2023-03-16T02:31:55.508Z,100254.97
2023-03-16T02:34:23.841Z,100260.13
2023-03-16T02:36:54.051Z,100249.59
2023-03-16T02:39:25.618Z,100246.31
2023-03-16T02:41:53.398Z,100249.13
2023-03-16T02:44:25.368Z,100240.63
2023-03-16T02:47:00.199Z,100243.19
2023-03-16T02:49:34.606Z,100239.63
2023-03-16T02:52:03.753Z,100232.00
2023-03-16T02:54:32.372Z,100227.50
2023-03-16T02:56:59.991Z,100233.06
2023-03-16T02:59:29.456Z,100229.81
2023-03-16T03:01:58.719Z,100225.75
2023-03-16T03:04:26.520Z,100224.94
2023-03-16T03:06:54.080Z,100224.00
2023-03-16T03:09:21.772Z,100219.84
2023-03-16T03:11:53.504Z,100218.13
2023-03-16T03:14:25.477Z,100214.19
2023-03-16T03:16:53.366Z,100215.78
2023-03-16T03:19:20.919Z,100219.25
2023-03-16T03:21:57.011Z,100219.19
2023-03-16T03:24:24.790Z,100230.19
2023-03-16T03:26:52.312Z,100231.25
2023-03-16T03:29:21.666Z,100227.72
2023-03-16T03:31:49.357Z,100216.13
2023-03-16T03:34:24.159Z,100211.63
2023-03-16T03:36:53.776Z,100210.78
2023-03-16T03:39:21.635Z,100221.38
2023-03-16T03:41:54.696Z,100208.34
2023-03-16T03:44:24.440Z,100208.56
2023-03-16T03:46:52.594Z,100215.44
2023-03-16T03:49:20.814Z,100212.22
2023-03-16T03:51:50.490Z,100222.72
2023-03-16T03:54:25.318Z,100213.66
2023-03-16T03:56:57.249Z,100219.41
2023-03-16T03:59:25.061Z,100223.97
2023-03-16T04:02:16.291Z,100229.75
2023-03-16T04:04:56.136Z,100233.50
2023-03-16T04:07:23.798Z,100223.06
2023-03-16T04:09:54.973Z,100233.41
2023-03-16T04:12:46.874Z,100235.69
2023-03-16T04:15:15.474Z,100234.81
2023-03-16T04:18:18.561Z,100237.81
2023-03-16T04:20:46.836Z,100235.84
2023-03-16T04:23:18.419Z,100238.38
2023-03-16T04:25:49.603Z,100246.16
2023-03-16T04:28:21.194Z,100244.09
2023-03-16T04:30:55.482Z,100245.22
2023-03-16T04:33:29.176Z,100245.13
2023-03-16T04:35:57.859Z,100245.88
2023-03-16T04:38:26.158Z,100246.56
2023-03-16T04:41:04.388Z,100255.50
2023-03-16T04:43:38.601Z,100253.41
2023-03-16T04:46:16.843Z,100259.72
2023-03-16T04:48:44.730Z,100254.59
2023-03-16T04:51:12.548Z,100265.72
2023-03-16T04:53:46.969Z,100264.19
2023-03-16T04:56:24.306Z,100272.84
2023-03-16T04:58:57.793Z,100274.75
2023-03-16T05:01:31.112Z,100269.56
2023-03-16T05:04:02.633Z,100273.19
2023-03-16T05:06:33.421Z,100273.75
2023-03-16T05:09:05.894Z,100270.28
2023-03-16T05:11:36.653Z,100270.56
2023-03-16T05:14:10.866Z,100270.34
2023-03-16T05:16:52.741Z,100271.00
2023-03-16T05:19:21.755Z,100264.03
2023-03-16T05:21:49.977Z,100266.28
2023-03-16T05:24:18.316Z,100267.13
2023-03-16T05:26:46.104Z,100260.22
2023-03-16T05:29:16.820Z,100256.03
2023-03-16T05:31:47.838Z,100261.63
2023-03-16T05:34:21.109Z,100255.53
2023-03-16T05:36:49.045Z,100264.34
2023-03-16T05:39:18.151Z,100259.81
2023-03-16T05:41:48.811Z,100254.41
2023-03-16T05:44:16.349Z,100256.00
2023-03-16T05:47:07.183Z,100250.38
2023-03-16T05:49:39.606Z,100240.72
2023-03-16T05:52:13.949Z,100247.03
2023-03-16T05:54:43.078Z,100253.63
2023-03-16T05:57:11.445Z,100243.88
2023-03-16T05:59:42.423Z,100249.97
2023-03-16T06:02:11.659Z,100247.56
2023-03-16T06:04:39.208Z,100260.38
2023-03-16T06:07:07.516Z,100270.88
2023-03-16T06:09:41.517Z,100270.38
2023-03-16T06:12:14.780Z,100280.41
2023-03-16T06:14:43.663Z,100273.31
2023-03-16T06:17:14.325Z,100271.44
2023-03-16T06:19:43.008Z,100272.25
2023-03-16T06:22:11.054Z,100264.22
2023-03-16T06:24:45.717Z,100267.66
2023-03-16T06:27:14.779Z,100277.44
2023-03-16T06:30:12.247Z,100275.94
2023-03-16T06:32:45.451Z,100268.03
2023-03-16T06:35:13.350Z,100272.09
2023-03-16T06:37:49.072Z,100272.03
2023-03-16T06:40:35.634Z,100281.34
2023-03-16T06:43:07.981Z,100282.47
2023-03-16T06:45:36.293Z,100275.16
2023-03-16T06:48:04.268Z,100275.72
2023-03-16T06:50:32.759Z,100269.91
2023-03-16T06:53:01.161Z,100260.59
2023-03-16T06:55:32.793Z,100261.19
2023-03-16T06:58:01.730Z,100254.00
2023-03-16T07:00:30.857Z,100263.09
2023-03-16T07:03:00.458Z,100261.72
2023-03-16T07:05:29.909Z,100259.75
2023-03-16T07:08:02.702Z,100260.75
2023-03-16T07:10:32.121Z,100261.81
2023-03-16T07:13:00.021Z,100261.59
2023-03-16T07:15:27.757Z,100255.50
2023-03-16T07:17:58.203Z,100259.66
2023-03-16T07:20:28.802Z,100264.84
2023-03-16T07:22:57.038Z,100258.03
2023-03-16T07:25:24.888Z,100264.28
2023-03-16T07:27:54.927Z,100264.50
2023-03-16T07:30:29.549Z,100268.00
2023-03-16T07:32:57.688Z,100260.94
2023-03-16T07:35:27.152Z,100266.28
2023-03-16T07:37:55.874Z,100263.66
2023-03-16T07:40:27.072Z,100268.34
2023-03-16T07:43:00.840Z,100269.78
2023-03-16T07:45:36.066Z,100270.19
2023-03-16T07:48:07.788Z,100276.56
2023-03-16T07:50:57.608Z,100270.53
2023-03-16T07:53:25.741Z,100269.63
2023-03-16T07:56:05.582Z,100271.31
2023-03-16T07:58:36.028Z,100272.31
2023-03-16T08:01:04.233Z,100278.72
2023-03-16T08:03:32.227Z,100271.47
2023-03-16T08:06:05.614Z,100277.66
2023-03-16T08:08:34.348Z,100276.72
2023-03-16T08:11:02.221Z,100274.59
2023-03-16T08:13:44.078Z,100274.75
2023-03-16T08:16:13.636Z,100268.56
2023-03-16T08:18:44.637Z,100268.56
2023-03-16T08:21:14.324Z,100274.75
2023-03-16T08:23:44.120Z,100282.34
2023-03-16T08:26:20.008Z,100276.53
2023-03-16T08:28:54.429Z,100281.53
2023-03-16T08:31:25.403Z,100271.66
2023-03-16T08:34:04.525Z,100282.66
2023-03-16T08:36:37.417Z,100277.78
2023-03-16T08:39:07.583Z,100280.31
2023-03-16T08:41:44.008Z,100287.09
2023-03-16T08:44:23.886Z,100294.84
2023-03-16T08:46:52.086Z,100296.63
2023-03-16T08:49:21.242Z,100293.09
2023-03-16T08:51:58.020Z,100295.63
2023-03-16T08:54:25.705Z,100296.63
2023-03-16T08:56:57.497Z,100304.44
2023-03-16T08:59:30.262Z,100303.97
2023-03-16T09:01:58.797Z,100305.38
2023-03-16T09:04:28.461Z,100312.81
2023-03-16T09:07:07.983Z,100309.22
2023-03-16T09:09:36.728Z,100303.59
2023-03-16T09:12:06.164Z,100310.53
2023-03-16T09:14:33.744Z,100317.25
2023-03-16T09:17:07.881Z,100311.78
2023-03-16T09:19:53.187Z,100317.88
2023-03-16T09:22:22.170Z,100318.34
2023-03-16T09:24:51.406Z,100325.41
2023-03-16T09:27:20.794Z,100325.09
2023-03-16T09:29:53.036Z,100316.69
2023-03-16T09:32:21.093Z,100317.25
2023-03-16T09:34:48.712Z,100308.97
2023-03-16T09:37:44.525Z,100319.31
2023-03-16T09:40:26.738Z,100310.44
2023-03-16T09:43:03.084Z,100308.47
2023-03-16T09:45:35.955Z,100311.13
2023-03-16T09:48:05.799Z,100310.50
2023-03-16T09:50:47.681Z,100301.59
2023-03-16T09:53:32.059Z,100309.34
2023-03-16T09:56:06.155Z,100313.25
2023-03-16T09:58:34.304Z,100310.81
2023-03-16T10:01:38.892Z,100308.16
2023-03-16T10:04:13.351Z,100313.69
2023-03-16T10:07:03.014Z,100314.47
2023-03-16T10:09:41.821Z,100311.75
2023-03-16T10:12:16.374Z,100321.13
2023-03-16T10:14:47.563Z,100318.22
2023-03-16T10:17:24.443Z,100316.59
2023-03-16T10:19:58.199Z,100313.53
2023-03-16T10:22:31.949Z,100322.88
2023-03-16T10:25:14.097Z,100311.34
2023-03-16T10:27:45.248Z,100312.31
2023-03-16T10:30:31.204Z,100309.09
2023-03-16T10:33:05.647Z,100304.41
2023-03-16T10:35:55.792Z,100314.31
2023-03-16T10:38:27.743Z,100311.69
2023-03-16T10:40:57.935Z,100302.78
2023-03-16T10:43:26.599Z,100299.72
2023-03-16T10:46:00.548Z,100300.09
2023-03-16T10:48:31.086Z,100301.44
2023-03-16T10:51:12.187Z,100295.50
2023-03-16T10:53:44.268Z,100295.00
2023-03-16T10:56:23.939Z,100284.13
2023-03-16T10:58:52.259Z,100282.41
2023-03-16T11:01:32.099Z,100286.75
2023-03-16T11:04:00.234Z,100284.97
2023-03-16T11:06:33.449Z,100283.09
2023-03-16T11:09:10.358Z,100284.19
2023-03-16T11:11:38.384Z,100282.31
2023-03-16T11:14:14.149Z,100280.03
2023-03-16T11:17:04.297Z,100284.13
2023-03-16T11:19:41.644Z,100284.13
2023-03-16T11:22:16.524Z,100279.09
2023-03-16T11:25:03.088Z,100285.66
2023-03-16T11:27:36.968Z,100281.91
2023-03-16T11:30:29.240Z,100283.88
2023-03-16T11:33:00.681Z,100284.47
2023-03-16T11:35:38.428Z,100287.19
2023-03-16T11:38:16.864Z,100277.78
2023-03-16T11:41:05.888Z,100273.03
2023-03-16T11:43:34.431Z,100264.91
2023-03-16T11:46:17.538Z,100257.84
2023-03-16T11:48:46.384Z,100258.44
2023-03-16T11:51:26.052Z,100250.00
2023-03-16T11:54:14.588Z,100247.00
2023-03-16T11:57:00.024Z,100246.81
2023-03-16T12:00:01.035Z,100241.91
2023-03-16T12:02:48.516Z,100239.53
2023-03-16T12:05:44.352Z,100236.59
2023-03-16T12:08:35.219Z,100249.81
2023-03-16T12:11:05.635Z,100249.41
2023-03-16T12:14:03.701Z,100246.13
2023-03-16T12:17:13.641Z,100242.91
2023-03-16T12:19:52.399Z,100241.78
2023-03-16T12:22:33.008Z,100245.00
2023-03-16T12:25:03.474Z,100244.66
2023-03-16T12:27:34.854Z,100250.31
2023-03-16T12:30:12.982Z,100242.94
2023-03-16T12:32:55.833Z,100235.94
2023-03-16T12:35:47.077Z,100237.47
2023-03-16T12:38:50.223Z,100241.16
2023-03-16T12:41:33.939Z,100232.16
2023-03-16T12:44:10.922Z,100234.44
2023-03-16T12:46:43.233Z,100241.78
2023-03-16T12:49:11.848Z,100247.47
2023-03-16T12:51:44.030Z,100246.97
2023-03-16T12:54:19.131Z,100257.38
2023-03-16T12:56:54.246Z,100261.72
2023-03-16T12:59:24.286Z,100261.41
2023-03-16T13:02:06.869Z,100263.50
2023-03-16T13:04:41.764Z,100255.38
2023-03-16T13:07:22.787Z,100253.41
2023-03-16T13:09:57.736Z,100259.22
2023-03-16T13:12:37.024Z,100262.81
2023-03-16T13:15:20.284Z,100262.81
2023-03-16T13:18:02.525Z,100254.91
2023-03-16T13:20:34.231Z,100268.78
2023-03-16T13:23:18.408Z,100265.09
2023-03-16T13:26:01.790Z,100272.38
2023-03-16T13:28:36.131Z,100281.56
2023-03-16T13:31:19.674Z,100293.88
2023-03-16T13:33:48.535Z,100285.16
2023-03-16T13:36:21.114Z,100302.44
2023-03-16T13:39:20.960Z,100306.63
2023-03-16T13:42:17.933Z,100310.03
2023-03-16T13:44:47.630Z,100310.47
2023-03-16T13:47:19.793Z,100309.25
2023-03-16T13:49:58.487Z,100308.50
2023-03-16T13:52:32.308Z,100307.56
2023-03-16T13:55:02.640Z,100313.78
2023-03-16T13:57:36.798Z,100312.66
2023-03-16T14:00:08.258Z,100322.13
2023-03-16T14:02:43.923Z,100321.44
2023-03-16T14:05:26.249Z,100325.56
2023-03-16T14:07:55.533Z,100326.44
2023-03-16T14:10:26.747Z,100327.44
2023-03-16T14:13:10.103Z,100328.56
2023-03-16T14:15:38.838Z,100326.59
2023-03-16T14:18:33.824Z,100328.28
2023-03-16T14:21:07.212Z,100338.69
2023-03-16T14:23:41.093Z,100336.59
2023-03-16T14:26:15.283Z,100333.34
2023-03-16T14:29:02.847Z,100340.31
2023-03-16T14:31:39.883Z,100333.25
2023-03-16T14:34:30.324Z,100336.22
2023-03-16T14:37:12.641Z,100339.81
2023-03-16T14:39:41.750Z,100346.75
2023-03-16T14:42:30.772Z,100357.50
2023-03-16T14:45:07.696Z,100355.69
2023-03-16T14:47:43.579Z,100360.69
2023-03-16T14:50:18.851Z,100369.56
2023-03-16T14:52:50.676Z,100382.25
2023-03-16T14:55:20.867Z,100386.44
2023-03-16T14:57:51.554Z,100400.50
2023-03-16T15:00:21.924Z,100395.97
2023-03-16T15:02:59.391Z,100403.88
2023-03-16T15:05:37.222Z,100405.59
2023-03-16T15:08:11.789Z,100403.66
2023-03-16T15:10:45.188Z,100396.50
2023-03-16T15:13:53.043Z,100396.31
2023-03-16T15:16:23.281Z,100398.94
2023-03-16T15:18:52.067Z,100406.72
2023-03-16T15:21:29.754Z,100413.69
2023-03-16T15:24:02.229Z,100415.41
2023-03-16T15:26:30.786Z,100418.13
2023-03-16T15:28:58.769Z,100420.16
2023-03-16T15:31:26.834Z,100422.22
2023-03-16T15:33:54.386Z,100432.69
2023-03-16T15:36:22.828Z,100421.97
2023-03-16T15:38:53.874Z,100420.00
2023-03-16T15:41:21.566Z,100419.13
2023-03-16T15:43:53.204Z,100425.78
2023-03-16T15:46:21.356Z,100427.47
2023-03-16T15:48:48.921Z,100424.19
2023-03-16T15:51:29.047Z,100433.47
2023-03-16T15:54:07.065Z,100436.84
2023-03-16T15:56:52.788Z,100441.28
2023-03-16T15:59:28.925Z,100448.19
2023-03-16T16:01:57.844Z,100449.22
2023-03-16T16:04:26.174Z,100448.00
2023-03-16T16:06:57.913Z,100457.59
2023-03-16T16:09:25.950Z,100453.44
2023-03-16T16:11:53.568Z,100449.09
2023-03-16T16:14:25.938Z,100455.16
2023-03-16T16:16:54.503Z,100463.69
2023-03-16T16:19:22.209Z,100464.44
2023-03-16T16:21:55.066Z,100458.72
2023-03-16T16:24:23.573Z,100461.50
2023-03-16T16:26:54.714Z,100460.22
2023-03-16T16:29:26.793Z,100461.41
2023-03-16T16:31:55.418Z,100459.09
2023-03-16T16:34:25.744Z,100470.84
2023-03-16T16:36:55.498Z,100468.13
2023-03-16T16:39:24.271Z,100482.28
2023-03-16T16:41:56.485Z,100466.56
2023-03-16T16:44:28.811Z,100466.72
2023-03-16T16:46:59.814Z,100469.50
2023-03-16T16:49:30.721Z,100470.44
2023-03-16T16:51:59.159Z,100471.47
2023-03-16T16:54:31.348Z,100474.19
2023-03-16T16:57:00.714Z,100469.22
2023-03-16T16:59:36.943Z,100477.22
2023-03-16T17:02:22.243Z,100472.28
2023-03-16T17:04:53.745Z,100483.81
2023-03-16T17:07:23.323Z,100489.25
2023-03-16T17:09:53.864Z,100499.94
2023-03-16T17:12:23.549Z,100509.78
2023-03-16T17:14:51.227Z,100507.94
2023-03-16T17:17:22.401Z,100510.00
2023-03-16T17:19:52.273Z,100511.66
2023-03-16T17:22:25.218Z,100510.78
2023-03-16T17:24:57.542Z,100517.16
2023-03-16T17:27:31.505Z,100516.44
2023-03-16T17:29:59.103Z,100515.38
2023-03-16T17:32:27.558Z,100507.13
2023-03-16T17:34:55.911Z,100513.97
2023-03-16T17:37:23.463Z,100515.97
2023-03-16T17:39:52.098Z,100528.38
2023-03-16T17:42:23.063Z,100532.16
2023-03-16T17:44:53.343Z,100529.53
2023-03-16T17:47:23.540Z,100526.97
2023-03-16T17:49:51.959Z,100527.84
2023-03-16T17:52:23.785Z,100530.38
2023-03-16T17:54:54.220Z,100536.75
2023-03-16T17:57:40.157Z,100533.22
2023-03-16T18:00:30.176Z,100534.13
2023-03-16T18:03:03.707Z,100534.13
2023-03-16T18:05:34.218Z,100551.63
2023-03-16T18:08:14.268Z,100549.03
2023-03-16T18:10:46.886Z,100553.63
2023-03-16T18:13:27.414Z,100556.91
2023-03-16T18:16:00.509Z,100550.63
2023-03-16T18:18:31.700Z,100557.59
2023-03-16T18:21:01.937Z,100554.47
2023-03-16T18:23:32.463Z,100560.47
2023-03-16T18:26:03.452Z,100554.31
2023-03-16T18:28:31.599Z,100556.19
2023-03-16T18:31:00.244Z,100554.31
2023-03-16T18:33:34.725Z,100555.41
2023-03-16T18:36:06.829Z,100555.53
2023-03-16T18:38:38.458Z,100550.91
2023-03-16T18:41:22.857Z,100554.63
2023-03-16T18:43:53.573Z,100562.59
2023-03-16T18:46:34.404Z,100564.53
2023-03-16T18:49:11.162Z,100566.31
2023-03-16T18:51:39.171Z,100564.81
2023-03-16T18:54:21.067Z,100569.03
2023-03-16T18:56:49.676Z,100567.28
2023-03-16T18:59:17.677Z,100568.22
2023-03-16T19:01:46.313Z,100570.94
2023-03-16T19:04:26.033Z,100577.06
2023-03-16T19:06:55.338Z,100579.56
2023-03-16T19:09:29.068Z,100581.31
2023-03-16T19:11:59.845Z,100587.47
2023-03-16T19:14:31.974Z,100588.25
2023-03-16T19:17:05.105Z,100580.63
2023-03-16T19:19:33.047Z,100593.81
2023-03-16T19:22:12.783Z,100591.28
2023-03-16T19:24:48.222Z,100589.88
2023-03-16T19:27:28.029Z,100595.94
2023-03-16T19:29:58.784Z,100593.31
2023-03-16T19:32:26.620Z,100592.63
2023-03-16T19:34:56.693Z,100581.44
2023-03-16T19:37:25.921Z,100589.34
2023-03-16T19:39:53.540Z,100585.22
2023-03-16T19:42:28.747Z,100583.75
2023-03-16T19:44:56.877Z,100577.53
2023-03-16T19:47:34.915Z,100573.97
2023-03-16T19:50:06.262Z,100576.41
2023-03-16T19:52:34.046Z,100578.31
2023-03-16T19:55:01.803Z,100574.91
2023-03-16T19:57:29.812Z,100583.59
2023-03-16T20:00:06.682Z,100597.09
2023-03-16T20:02:42.930Z,100601.00
2023-03-16T20:05:17.672Z,100590.47
2023-03-16T20:07:45.713Z,100587.63
2023-03-16T20:10:18.807Z,100587.69
2023-03-16T20:12:48.605Z,100591.09
2023-03-16T20:15:20.954Z,100587.50
2023-03-16T20:17:50.442Z,100584.63
2023-03-16T20:20:26.986Z,100585.84
2023-03-16T20:22:58.560Z,100570.97
2023-03-16T20:25:30.911Z,100566.78
2023-03-16T20:28:02.151Z,100558.88
2023-03-16T20:30:31.217Z,100575.81
2023-03-16T20:33:00.918Z,100577.72
2023-03-16T20:35:31.292Z,100570.09
2023-03-16T20:37:59.302Z,100568.38
2023-03-16T20:40:27.078Z,100561.41
2023-03-16T20:42:56.466Z,100563.28
2023-03-16T20:45:30.640Z,100567.47
2023-03-16T20:47:58.943Z,100564.91
2023-03-16T20:50:29.313Z,100562.94
2023-03-16T20:52:57.541Z,100560.50
2023-03-16T20:55:29.328Z,100555.22
2023-03-16T20:58:11.490Z,100562.84
2023-03-16T21:00:40.359Z,100561.03
2023-03-16T21:03:23.196Z,100568.00
2023-03-16T21:05:54.271Z,100563.66
2023-03-16T21:08:22.047Z,100571.66
2023-03-16T21:10:53.684Z,100577.72
2023-03-16T21:13:31.944Z,100571.66
2023-03-16T21:16:03.446Z,100573.53
2023-03-16T21:18:34.858Z,100575.16
2023-03-16T21:21:03.320Z,100570.91
2023-03-16T21:23:31.065Z,100573.66
2023-03-16T21:26:01.554Z,100583.06
2023-03-16T21:28:34.068Z,100574.56
2023-03-16T21:31:03.014Z,100575.16
2023-03-16T21:33:37.328Z,100577.00
2023-03-16T21:36:12.458Z,100574.09
2023-03-16T21:38:41.309Z,100576.66
2023-03-16T21:41:09.267Z,100586.34
2023-03-16T21:43:36.815Z,100584.84
2023-03-16T21:46:06.094Z,100584.91
2023-03-16T21:48:37.747Z,100598.25
2023-03-16T21:51:18.913Z,100600.81
2023-03-16T21:53:48.863Z,100596.56
2023-03-16T21:56:20.749Z,100592.66
2023-03-16T21:58:49.184Z,100593.59
2023-03-16T22:01:30.600Z,100606.22
2023-03-16T22:04:05.222Z,100596.47
2023-03-16T22:06:33.460Z,100603.41
2023-03-16T22:09:02.763Z,100605.22
2023-03-16T22:11:31.505Z,100607.09
2023-03-16T22:13:59.526Z,100602.88
2023-03-16T22:16:31.662Z,100613.34
2023-03-16T22:18:59.556Z,100615.97
2023-03-16T22:21:41.342Z,100618.66
2023-03-16T22:24:14.891Z,100618.63
2023-03-16T22:26:42.780Z,100618.88
2023-03-16T22:29:25.465Z,100618.03
2023-03-16T22:31:57.757Z,100617.03
2023-03-16T22:34:25.925Z,100617.75
2023-03-16T22:36:54.064Z,100622.88
2023-03-16T22:39:21.674Z,100615.66
2023-03-16T22:41:49.300Z,100617.34
2023-03-16T22:44:23.871Z,100613.97
2023-03-16T22:46:51.559Z,100618.38
2023-03-16T22:49:27.160Z,100609.56
2023-03-16T22:51:57.455Z,100608.00
2023-03-16T22:54:28.467Z,100606.66
2023-03-16T22:56:56.960Z,100604.97
2023-03-16T22:59:26.552Z,100601.41
2023-03-16T23:01:54.179Z,100601.56
2023-03-16T23:04:25.887Z,100598.94
2023-03-16T23:06:54.705Z,100599.69
2023-03-16T23:09:22.663Z,100591.22
2023-03-16T23:11:56.579Z,100596.56
2023-03-16T23:14:29.257Z,100589.72
2023-03-16T23:16:57.342Z,100593.53
2023-03-16T23:19:32.984Z,100598.03
2023-03-16T23:22:06.950Z,100603.16
2023-03-16T23:24:36.189Z,100600.22
2023-03-16T23:27:05.350Z,100602.09
2023-03-16T23:29:33.980Z,100599.72
2023-03-16T23:32:04.605Z,100595.13
2023-03-16T23:34:33.386Z,100598.28
2023-03-16T23:37:00.785Z,100602.56
2023-03-16T23:39:28.986Z,100591.81
2023-03-16T23:41:57.370Z,100594.13
2023-03-16T23:44:27.615Z,100604.88
2023-03-16T23:46:56.909Z,100609.22
2023-03-16T23:49:27.689Z,100603.47
2023-03-16T23:51:57.844Z,100600.00
2023-03-16T23:54:27.714Z,100603.69
2023-03-16T23:56:55.660Z,100608.03
2023-03-16T23:59:23.975Z,100605.50
